ESCF/LPI METAR and TAF weather

Enter ICAO airport designator
Station Type Date Time Source
ESCF METAR 2019/06/26 21:50 UTC NOAA

ESCF 262150Z AUTO 26005KT 9999 BKN090/// OVC110/// 15/14 Q1014


Station Type Date Time Source
ESCF Decoded METAR 2019/06/26 21:50 UTC NOAA

Linkoping / Malmen, Sweden (ESCF) 58-24N 015-31E 117M
Jun 26, 2019 - 05:50 PM EDT / 2019.06.26 2150 UTC
Wind: from the W (260 degrees) at 6 MPH (5 KT):0
Visibility: greater than 7 mile(s):0
Sky conditions: overcast
Temperature: 59 F (15 C)
Dew Point: 57 F (14 C)
Relative Humidity: 93%
Pressure (altimeter): 29.94 in. Hg (1014 hPa)
ob: ESCF 262150Z AUTO 26005KT 9999 BKN090/// OVC110/// 15/14 Q1014
cycle: 22

Station Type Date Time Source
ESCF TAF UTC NOAA

Error!

Example: see airport list